createdAt,value
2018-09-17T00:01:33.832Z,93.81
2018-09-17T00:04:03.385Z,93.47
2018-09-17T00:06:32.865Z,94.09
2018-09-17T00:09:02.281Z,94.45
2018-09-17T00:11:31.774Z,93.17
2018-09-17T00:14:01.301Z,93.61
2018-09-17T00:16:30.936Z,92.82
2018-09-17T00:19:00.370Z,93.63
2018-09-17T00:21:30.598Z,93.59
2018-09-17T00:24:00.215Z,93.57
2018-09-17T00:26:29.801Z,93.27
2018-09-17T00:28:59.805Z,93.51
2018-09-17T00:31:29.486Z,93.80
2018-09-17T00:33:58.934Z,93.48
2018-09-17T00:36:28.785Z,93.13
2018-09-17T00:38:58.214Z,92.79
2018-09-17T00:41:27.745Z,94.32
2018-09-17T00:43:57.323Z,93.10
2018-09-17T00:46:26.868Z,93.66
2018-09-17T00:48:56.458Z,94.70
2018-09-17T00:51:26.055Z,93.86
2018-09-17T00:53:55.585Z,93.43
2018-09-17T00:56:25.247Z,93.96
2018-09-17T00:58:55.613Z,93.81
2018-09-17T01:01:25.258Z,93.11
2018-09-17T01:03:54.773Z,93.13
2018-09-17T01:06:24.456Z,93.89
2018-09-17T01:08:53.928Z,94.11
2018-09-17T01:11:23.671Z,93.70
2018-09-17T01:13:53.234Z,93.94
2018-09-17T01:16:22.909Z,93.74
2018-09-17T01:18:52.457Z,93.77
2018-09-17T01:21:22.151Z,94.17
2018-09-17T01:23:51.694Z,93.61
2018-09-17T01:26:21.187Z,93.28
2018-09-17T01:28:51.553Z,93.97
2018-09-17T01:31:22.130Z,93.73
2018-09-17T01:33:51.742Z,93.26
2018-09-17T01:36:21.624Z,94.22
2018-09-17T01:38:51.208Z,93.82
2018-09-17T01:41:20.862Z,94.37
2018-09-17T01:43:50.390Z,93.84
2018-09-17T01:46:20.345Z,94.13
2018-09-17T01:48:49.838Z,94.05
2018-09-17T01:51:19.426Z,93.36
2018-09-17T01:53:49.032Z,92.79
2018-09-17T01:56:18.804Z,94.38
2018-09-17T01:58:48.226Z,93.93
2018-09-17T02:01:18.410Z,93.70
2018-09-17T02:03:48.059Z,94.88
2018-09-17T02:06:18.179Z,94.48
2018-09-17T02:08:47.816Z,93.99
2018-09-17T02:11:17.486Z,94.43
2018-09-17T02:13:47.268Z,93.80
2018-09-17T02:16:17.029Z,93.93
2018-09-17T02:18:47.105Z,94.06
2018-09-17T02:21:16.767Z,93.51
2018-09-17T02:23:46.145Z,93.62
2018-09-17T02:26:15.908Z,93.78
2018-09-17T02:28:45.360Z,93.47
2018-09-17T02:31:15.136Z,94.05
2018-09-17T02:33:44.543Z,94.58
2018-09-17T02:36:14.718Z,94.09
2018-09-17T02:38:44.175Z,93.80
2018-09-17T02:41:13.818Z,93.67
2018-09-17T02:43:43.257Z,93.87
2018-09-17T02:46:12.707Z,94.12
2018-09-17T02:48:42.163Z,93.82
2018-09-17T02:51:11.746Z,93.39
2018-09-17T02:53:41.350Z,93.22
2018-09-17T02:56:10.918Z,93.06
2018-09-17T02:58:40.423Z,93.46
2018-09-17T03:01:09.978Z,92.62
2018-09-17T03:03:39.389Z,93.30
2018-09-17T03:06:10.835Z,92.86
2018-09-17T03:08:40.261Z,93.18
2018-09-17T03:11:10.635Z,93.26
2018-09-17T03:13:40.250Z,94.14
2018-09-17T03:16:10.531Z,94.54
2018-09-17T03:18:56.218Z,93.95
2018-09-17T03:21:25.768Z,92.95
2018-09-17T03:23:55.723Z,93.00
2018-09-17T03:26:25.527Z,92.93
2018-09-17T03:28:55.014Z,92.72
2018-09-17T03:31:24.538Z,93.06
2018-09-17T03:33:54.139Z,93.76
2018-09-17T03:36:23.678Z,93.93
2018-09-17T03:38:53.177Z,93.78
2018-09-17T03:41:22.784Z,93.51
2018-09-17T03:43:53.532Z,94.55
2018-09-17T03:46:22.987Z,94.22
2018-09-17T03:48:52.460Z,93.28
2018-09-17T03:51:23.576Z,93.55
2018-09-17T03:53:53.158Z,93.58
2018-09-17T03:56:23.630Z,93.58
2018-09-17T03:58:53.347Z,93.31
2018-09-17T04:01:23.919Z,93.48
2018-09-17T04:03:53.779Z,93.73
2018-09-17T04:06:23.303Z,93.96
2018-09-17T04:08:53.016Z,94.37
2018-09-17T04:11:22.663Z,94.61
2018-09-17T04:13:52.437Z,94.37
2018-09-17T04:16:21.979Z,93.69
2018-09-17T04:18:51.484Z,93.36
2018-09-17T04:21:21.168Z,93.51
2018-09-17T04:23:50.780Z,93.09
2018-09-17T04:26:20.997Z,93.51
2018-09-17T04:28:50.786Z,93.79
2018-09-17T04:31:20.557Z,93.80
2018-09-17T04:33:50.169Z,94.77
2018-09-17T04:36:19.917Z,94.19
2018-09-17T04:38:49.661Z,93.83
2018-09-17T04:41:19.401Z,94.05
2018-09-17T04:43:49.071Z,94.78
2018-09-17T04:46:19.081Z,94.49
2018-09-17T04:48:48.854Z,93.98
2018-09-17T04:51:18.299Z,94.03
2018-09-17T04:53:48.045Z,94.46
2018-09-17T04:56:17.816Z,94.23
2018-09-17T04:58:47.326Z,94.46
2018-09-17T05:01:16.854Z,94.14
2018-09-17T05:03:46.491Z,94.62
2018-09-17T05:06:16.197Z,94.42
2018-09-17T05:08:45.759Z,94.57
2018-09-17T05:11:15.370Z,94.75
2018-09-17T05:13:45.223Z,94.70
2018-09-17T05:16:14.771Z,94.53
2018-09-17T05:18:44.462Z,94.78
2018-09-17T05:21:14.149Z,95.05
2018-09-17T05:23:43.611Z,94.86
2018-09-17T05:26:13.322Z,94.66
2018-09-17T05:28:43.085Z,94.61
2018-09-17T05:31:12.614Z,94.58
2018-09-17T05:33:42.289Z,94.51
2018-09-17T05:36:12.060Z,95.04
2018-09-17T05:38:41.827Z,94.85
2018-09-17T05:41:11.341Z,94.10
2018-09-17T05:43:41.176Z,93.76
2018-09-17T05:46:10.851Z,93.25
2018-09-17T05:48:40.553Z,93.67
2018-09-17T05:51:10.329Z,94.30
2018-09-17T05:53:39.987Z,94.64
2018-09-17T05:56:09.638Z,93.61
2018-09-17T05:58:39.396Z,93.66
2018-09-17T06:01:08.985Z,94.39
2018-09-17T06:03:38.719Z,93.62
2018-09-17T06:06:08.463Z,93.36
2018-09-17T06:08:38.024Z,93.54
2018-09-17T06:11:07.760Z,94.08
2018-09-17T06:13:37.490Z,92.20
2018-09-17T06:16:07.273Z,91.16
2018-09-17T06:18:37.147Z,89.27
2018-09-17T06:21:07.107Z,86.40
2018-09-17T06:23:36.894Z,87.44
2018-09-17T06:26:06.480Z,86.61
2018-09-17T06:28:36.424Z,85.13
2018-09-17T06:31:06.422Z,83.28
2018-09-17T06:33:36.223Z,85.41
2018-09-17T06:36:05.731Z,85.05
2018-09-17T06:38:35.463Z,83.68
2018-09-17T06:41:05.152Z,84.63
2018-09-17T06:43:34.904Z,85.09
2018-09-17T06:46:04.715Z,83.48
2018-09-17T06:48:34.443Z,84.68
2018-09-17T06:51:03.987Z,85.27
2018-09-17T06:53:33.981Z,84.11
2018-09-17T06:56:03.574Z,85.58
2018-09-17T06:58:33.165Z,85.58
2018-09-17T07:01:03.226Z,85.01
2018-09-17T07:03:33.671Z,84.23
2018-09-17T07:06:03.173Z,84.24
2018-09-17T07:08:32.842Z,84.48
2018-09-17T07:11:02.485Z,84.77
2018-09-17T07:13:32.254Z,83.96
2018-09-17T07:16:01.865Z,83.62
2018-09-17T07:18:31.564Z,84.55
2018-09-17T07:21:01.166Z,82.13
2018-09-17T07:23:31.124Z,83.37
2018-09-17T07:26:00.560Z,82.15
2018-09-17T07:28:30.271Z,82.27
2018-09-17T07:30:59.881Z,81.01
2018-09-17T07:33:29.852Z,80.75
2018-09-17T07:35:59.312Z,80.66
2018-09-17T07:38:29.021Z,80.27
2018-09-17T07:40:58.523Z,80.54
2018-09-17T07:43:28.315Z,79.42
2018-09-17T07:45:57.969Z,79.89
2018-09-17T07:48:27.723Z,77.93
2018-09-17T07:50:57.320Z,75.97
2018-09-17T07:53:27.082Z,75.47
2018-09-17T07:55:56.687Z,75.59
2018-09-17T07:58:26.684Z,72.69
2018-09-17T08:00:56.192Z,70.77
2018-09-17T08:03:25.946Z,71.00
2018-09-17T08:05:55.589Z,67.81
2018-09-17T08:08:25.477Z,66.85
2018-09-17T08:10:55.234Z,66.53
2018-09-17T08:13:24.731Z,65.28
2018-09-17T08:15:54.451Z,64.84
2018-09-17T08:18:24.243Z,61.67
2018-09-17T08:20:54.255Z,60.40
2018-09-17T08:23:24.034Z,59.16
2018-09-17T08:25:53.723Z,61.10
2018-09-17T08:28:23.734Z,58.02
2018-09-17T08:30:53.320Z,56.95
2018-09-17T08:33:23.112Z,59.22
2018-09-17T08:35:52.686Z,57.78
2018-09-17T08:38:22.629Z,61.41
2018-09-17T08:40:52.396Z,63.45
2018-09-17T08:43:22.282Z,59.15
2018-09-17T08:45:51.873Z,57.66
2018-09-17T08:48:21.606Z,54.80
2018-09-17T08:50:51.192Z,56.84
2018-09-17T08:53:21.653Z,57.12
2018-09-17T08:55:56.494Z,55.37
2018-09-17T08:58:27.482Z,59.14
2018-09-17T09:01:02.047Z,55.34
2018-09-17T09:03:36.840Z,51.50
2018-09-17T09:06:11.416Z,56.04
2018-09-17T09:08:41.168Z,54.29
2018-09-17T09:11:16.857Z,54.42
2018-09-17T09:13:55.603Z,55.17
2018-09-17T09:16:26.439Z,53.72
2018-09-17T09:18:56.236Z,50.67
2018-09-17T09:21:25.953Z,51.20
2018-09-17T09:29:36.514Z,55.24
2018-09-17T09:32:05.961Z,50.14
2018-09-17T09:34:35.609Z,51.89
2018-09-17T09:37:05.285Z,54.29
2018-09-17T09:39:34.854Z,55.23
2018-09-17T09:42:04.532Z,54.09
2018-09-17T09:44:34.161Z,55.58
2018-09-17T09:47:03.880Z,56.55
2018-09-17T09:49:33.567Z,54.35
2018-09-17T09:52:03.241Z,53.43
2018-09-17T09:54:32.810Z,56.61
2018-09-17T09:57:02.281Z,54.61
2018-09-17T09:59:32.053Z,54.86
2018-09-17T10:02:06.382Z,50.78
2018-09-17T10:04:36.236Z,53.80
2018-09-17T10:07:05.957Z,56.31
2018-09-17T10:09:40.355Z,54.44
2018-09-17T10:12:14.764Z,52.66
2018-09-17T10:14:49.462Z,51.72
2018-09-17T10:17:23.858Z,51.49
2018-09-17T10:19:54.474Z,51.24
2018-09-17T10:22:24.212Z,49.74
2018-09-17T10:24:53.943Z,47.14
2018-09-17T10:27:23.418Z,51.52
2018-09-17T10:29:53.146Z,48.33
2018-09-17T10:32:22.907Z,51.02
2018-09-17T10:34:52.780Z,52.61
2018-09-17T10:37:22.809Z,50.15
2018-09-17T10:39:52.541Z,48.64
2018-09-17T10:42:22.174Z,47.52
2018-09-17T10:44:55.552Z,50.62
2018-09-17T10:47:25.303Z,50.37
2018-09-17T10:49:55.748Z,50.62
2018-09-17T10:52:25.272Z,47.83
2018-09-17T10:54:54.926Z,49.55
2018-09-17T10:57:24.719Z,49.43
2018-09-17T10:59:54.452Z,47.31
2018-09-17T11:02:23.951Z,47.39
2018-09-17T11:04:53.643Z,50.51
2018-09-17T11:07:23.196Z,48.26
2018-09-17T11:09:52.845Z,49.47
2018-09-17T11:12:22.605Z,49.50
2018-09-17T11:14:52.379Z,48.04
2018-09-17T11:17:21.991Z,46.68
2018-09-17T11:19:51.886Z,49.02
2018-09-17T11:22:21.661Z,46.63
2018-09-17T11:24:51.431Z,48.07
2018-09-17T11:27:20.935Z,48.47
2018-09-17T11:29:50.616Z,42.65
2018-09-17T11:32:20.218Z,47.47
2018-09-17T11:34:50.129Z,47.55
2018-09-17T11:37:19.888Z,48.39
2018-09-17T11:39:49.708Z,48.54
2018-09-17T11:42:19.459Z,49.09
2018-09-17T11:44:49.190Z,45.79
2018-09-17T11:47:18.910Z,47.75
2018-09-17T11:49:48.687Z,47.34
2018-09-17T11:52:18.160Z,49.25
2018-09-17T11:54:47.888Z,48.33
2018-09-17T11:57:17.971Z,47.77
2018-09-17T11:59:47.511Z,46.72
2018-09-17T12:02:22.342Z,46.31
2018-09-17T12:05:00.844Z,47.12
2018-09-17T12:07:39.199Z,49.74
2018-09-17T12:10:09.168Z,50.88
2018-09-17T12:12:39.530Z,45.91
2018-09-17T12:15:10.073Z,47.56
2018-09-17T12:17:39.499Z,46.60
2018-09-17T12:20:09.154Z,48.43
2018-09-17T12:22:38.806Z,48.57
2018-09-17T12:25:08.458Z,45.35
2018-09-17T12:27:37.851Z,45.25
2018-09-17T12:30:08.097Z,44.63
2018-09-17T12:32:37.810Z,43.46
2018-09-17T12:35:07.532Z,43.75
2018-09-17T12:37:37.532Z,46.67
2018-09-17T12:40:07.424Z,41.97
2018-09-17T12:42:37.164Z,44.88
2018-09-17T12:45:07.728Z,45.48
2018-09-17T12:47:37.379Z,46.65
2018-09-17T12:50:08.195Z,47.11
2018-09-17T12:52:38.274Z,49.09
2018-09-17T12:55:08.092Z,47.66
2018-09-17T12:57:37.778Z,46.70
2018-09-17T13:00:08.836Z,47.07
2018-09-17T13:02:38.629Z,47.98
2018-09-17T13:05:08.428Z,46.05
2018-09-17T13:07:38.425Z,47.04
2018-09-17T13:10:08.452Z,45.86
2018-09-17T13:12:38.265Z,49.19
2018-09-17T13:15:08.382Z,47.92
2018-09-17T13:17:37.815Z,46.98
2018-09-17T13:20:09.349Z,47.63
2018-09-17T13:22:39.085Z,50.00
2018-09-17T13:25:08.833Z,45.31
2018-09-17T13:27:38.431Z,45.77
2018-09-17T13:30:08.918Z,45.19
2018-09-17T13:32:38.620Z,47.53
2018-09-17T13:35:08.342Z,48.79
2018-09-17T13:37:38.631Z,48.14
2018-09-17T13:40:08.188Z,48.64
2018-09-17T13:42:37.742Z,48.88
2018-09-17T13:45:07.704Z,46.39
2018-09-17T13:47:38.180Z,47.74
2018-09-17T13:50:08.493Z,48.65
2018-09-17T13:52:37.987Z,48.72
2018-09-17T13:55:07.745Z,47.68
2018-09-17T13:57:37.335Z,50.37
2018-09-17T14:00:07.290Z,48.56
2018-09-17T14:02:37.077Z,50.21
2018-09-17T14:05:06.833Z,51.27
2018-09-17T14:07:36.731Z,50.76
2018-09-17T14:10:07.162Z,51.51
2018-09-17T14:12:37.050Z,51.75
2018-09-17T14:15:07.535Z,53.83
2018-09-17T14:17:37.241Z,50.22
2018-09-17T14:20:07.387Z,51.69
2018-09-17T14:22:37.229Z,51.26
2018-09-17T14:25:10.745Z,50.75
2018-09-17T14:27:40.396Z,50.00
2018-09-17T14:30:10.297Z,48.73
2018-09-17T14:32:48.115Z,51.71
2018-09-17T14:35:36.264Z,51.88
2018-09-17T14:38:06.109Z,50.37
2018-09-17T14:40:36.258Z,52.14
2018-09-17T14:43:06.181Z,50.96
2018-09-17T14:45:36.137Z,50.00
2018-09-17T14:48:06.116Z,52.50
2018-09-17T14:50:35.899Z,51.02
2018-09-17T14:53:05.405Z,50.61
2018-09-17T14:55:40.203Z,51.48
2018-09-17T14:58:10.052Z,50.44
2018-09-17T15:00:40.156Z,51.58
2018-09-17T15:03:09.997Z,49.12
2018-09-17T15:05:39.844Z,49.40
2018-09-17T15:08:10.215Z,50.00
2018-09-17T15:10:39.680Z,52.37
2018-09-17T15:15:56.237Z,49.74
2018-09-17T15:18:29.133Z,50.94
2018-09-17T15:21:00.672Z,51.57
2018-09-17T15:23:42.393Z,49.36
2018-09-17T15:26:12.392Z,47.59
2018-09-17T15:28:42.920Z,48.03
2018-09-17T15:31:13.780Z,48.39
2018-09-17T15:33:50.329Z,50.66
2018-09-17T15:36:20.028Z,49.43
2018-09-17T15:38:54.631Z,50.71
2018-09-17T15:41:24.948Z,50.75
2018-09-17T15:43:59.785Z,50.91
2018-09-17T15:46:36.730Z,53.02
2018-09-17T15:49:07.499Z,53.51
2018-09-17T15:51:37.261Z,57.69
2018-09-17T15:54:08.225Z,58.00
2018-09-17T15:56:43.644Z,57.56
2018-09-17T15:59:13.885Z,58.52
2018-09-17T16:01:44.407Z,60.30
2018-09-17T16:04:15.479Z,60.55
2018-09-17T16:06:48.030Z,64.32
2018-09-17T16:09:17.981Z,62.00
2018-09-17T16:11:48.880Z,61.98
2018-09-17T16:14:19.164Z,64.33
2018-09-17T16:16:51.105Z,65.46
2018-09-17T16:19:20.705Z,66.31
2018-09-17T16:21:51.305Z,66.03
2018-09-17T16:24:21.724Z,67.35
2018-09-17T16:26:53.084Z,66.39
2018-09-17T16:29:22.536Z,67.26
2018-09-17T16:31:54.004Z,68.41
2018-09-17T16:34:23.578Z,68.39
2018-09-17T16:36:53.157Z,69.98
2018-09-17T16:39:23.617Z,70.12
2018-09-17T16:41:53.617Z,72.20
2018-09-17T16:44:23.097Z,73.33
2018-09-17T16:46:54.997Z,74.34
2018-09-17T16:49:24.566Z,74.98
2018-09-17T16:52:58.376Z,75.63
2018-09-17T16:55:28.319Z,76.66
2018-09-17T16:58:21.420Z,77.59
2018-09-17T17:19:59.720Z,79.12
2018-09-17T17:22:49.818Z,83.80
2018-09-17T17:25:22.632Z,84.13
2018-09-17T17:28:06.317Z,85.23
2018-09-17T17:30:48.075Z,85.15
2018-09-17T17:33:28.117Z,84.36
2018-09-17T17:36:08.072Z,85.12
2018-09-17T17:39:22.930Z,85.46
2018-09-17T17:42:54.673Z,85.45
2018-09-17T17:45:43.751Z,87.38
2018-09-17T17:48:26.305Z,87.97
2018-09-17T17:51:16.451Z,88.94
2018-09-17T17:54:09.564Z,88.58
2018-09-17T17:59:32.945Z,86.94
2018-09-17T18:05:20.927Z,88.10
2018-09-17T18:08:04.297Z,88.81
2018-09-17T18:10:49.230Z,89.39
2018-09-17T18:13:35.074Z,88.66
2018-09-17T18:16:42.782Z,88.40
2018-09-17T18:19:37.416Z,88.65
2018-09-17T18:37:39.756Z,91.15
2018-09-17T18:43:47.343Z,91.20
2018-09-17T18:46:24.243Z,90.17
2018-09-17T18:49:07.202Z,90.12
2018-09-17T18:54:45.728Z,89.65
2018-09-17T18:57:17.197Z,90.22
2018-09-17T18:59:59.689Z,89.46
2018-09-17T19:02:30.302Z,89.70
2018-09-17T19:05:00.322Z,89.99
2018-09-17T19:07:30.383Z,90.98
2018-09-17T19:10:01.162Z,90.29
2018-09-17T19:12:34.273Z,90.05
2018-09-17T19:18:01.109Z,90.06
2018-09-17T19:20:41.952Z,91.27
2018-09-17T19:23:17.329Z,91.40
2018-09-17T19:25:46.882Z,90.34
2018-09-17T19:28:22.820Z,91.27
2018-09-17T21:41:17.941Z,94.24
2018-09-17T21:43:47.562Z,93.93
2018-09-17T21:46:17.160Z,94.09
2018-09-17T21:48:47.268Z,94.01
2018-09-17T21:51:16.700Z,93.64
2018-09-17T21:53:46.160Z,92.00
2018-09-17T21:56:17.568Z,92.90
2018-09-17T21:58:47.720Z,94.02
2018-09-17T22:01:22.989Z,93.93
2018-09-17T22:03:54.540Z,93.30
2018-09-17T22:06:34.322Z,93.64
2018-09-17T22:09:06.963Z,93.42
2018-09-17T22:11:38.121Z,93.55
2018-09-17T22:14:09.642Z,93.10
2018-09-17T22:16:43.600Z,92.33
2018-09-17T22:19:20.545Z,92.31
2018-09-17T22:21:52.221Z,92.28
2018-09-17T22:24:22.780Z,92.36
2018-09-17T22:26:53.320Z,92.57
2018-09-17T22:29:24.368Z,91.68
2018-09-17T22:31:54.461Z,92.99
2018-09-17T22:34:24.200Z,93.55
2018-09-17T22:36:53.671Z,93.04
2018-09-17T22:39:23.088Z,93.78
2018-09-17T22:41:52.501Z,93.26
2018-09-17T22:44:22.101Z,93.40
2018-09-17T22:46:53.409Z,93.50
2018-09-17T22:49:23.480Z,94.26
2018-09-17T22:51:52.941Z,93.98
2018-09-17T22:54:22.606Z,92.21
2018-09-17T22:56:52.221Z,91.46
2018-09-17T22:59:21.799Z,92.81
2018-09-17T23:01:57.747Z,93.04
2018-09-17T23:04:27.719Z,93.32
2018-09-17T23:06:57.259Z,93.53
2018-09-17T23:09:26.920Z,93.19
2018-09-17T23:11:56.360Z,93.21
2018-09-17T23:14:25.967Z,93.37
2018-09-17T23:16:56.927Z,93.49
2018-09-17T23:19:30.967Z,93.77
2018-09-17T23:22:01.480Z,94.83
2018-09-17T23:24:37.688Z,93.97
2018-09-17T23:29:58.059Z,94.63
2018-09-17T23:32:31.364Z,95.40
2018-09-17T23:35:01.080Z,93.88
2018-09-17T23:37:32.039Z,94.52
2018-09-17T23:40:01.479Z,95.03
2018-09-17T23:42:31.880Z,93.68
2018-09-17T23:45:01.420Z,93.65
2018-09-17T23:47:33.060Z,93.83
2018-09-17T23:50:03.080Z,93.99
2018-09-17T23:52:33.567Z,93.93
2018-09-17T23:55:03.514Z,94.90
2018-09-17T23:57:32.999Z,94.88
